sensor_id;sensor_type;location;lat;lon;timestamp;temperature;humidity
63313;DHT22;49442;45.640;13.812;2022-08-19T00:01:45;23.10;99.90
63313;DHT22;49442;45.640;13.812;2022-08-19T00:04:13;23.10;99.90
63313;DHT22;49442;45.640;13.812;2022-08-19T00:06:42;23.10;99.90
63313;DHT22;49442;45.640;13.812;2022-08-19T00:09:10;23.10;99.90
63313;DHT22;49442;45.640;13.812;2022-08-19T00:11:36;23.10;99.90
63313;DHT22;49442;45.640;13.812;2022-08-19T00:14:05;23.10;99.90
63313;DHT22;49442;45.640;13.812;2022-08-19T00:16:31;23.10;99.90
63313;DHT22;49442;45.640;13.812;2022-08-19T00:18:57;23.10;99.90
63313;DHT22;49442;45.640;13.812;2022-08-19T00:21:24;23.20;99.90
63313;DHT22;49442;45.640;13.812;2022-08-19T00:23:52;23.20;99.90
63313;DHT22;49442;45.640;13.812;2022-08-19T00:26:19;23.20;99.90
63313;DHT22;49442;45.640;13.812;2022-08-19T00:28:45;23.20;99.90
63313;DHT22;49442;45.640;13.812;2022-08-19T00:31:12;23.30;99.90
63313;DHT22;49442;45.640;13.812;2022-08-19T00:33:38;23.40;99.90
63313;DHT22;49442;45.640;13.812;2022-08-19T00:36:06;23.40;99.90
63313;DHT22;49442;45.640;13.812;2022-08-19T00:38:33;23.40;99.90
63313;DHT22;49442;45.640;13.812;2022-08-19T00:40:59;23.40;99.90
63313;DHT22;49442;45.640;13.812;2022-08-19T00:43:27;23.40;99.90
63313;DHT22;49442;45.640;13.812;2022-08-19T00:45:53;23.40;99.90
63313;DHT22;49442;45.640;13.812;2022-08-19T00:48:20;23.50;99.90
63313;DHT22;49442;45.640;13.812;2022-08-19T00:50:48;23.50;99.90
63313;DHT22;49442;45.640;13.812;2022-08-19T00:53:16;23.50;99.90
63313;DHT22;49442;45.640;13.812;2022-08-19T00:55:49;23.50;99.90
63313;DHT22;49442;45.640;13.812;2022-08-19T00:58:19;23.60;99.90
63313;DHT22;49442;45.640;13.812;2022-08-19T01:00:46;23.60;99.90
63313;DHT22;49442;45.640;13.812;2022-08-19T01:03:15;23.60;99.90
63313;DHT22;49442;45.640;13.812;2022-08-19T01:05:43;23.50;99.90
63313;DHT22;49442;45.640;13.812;2022-08-19T01:08:10;23.50;99.90
63313;DHT22;49442;45.640;13.812;2022-08-19T01:10:55;23.60;99.90
63313;DHT22;49442;45.640;13.812;2022-08-19T01:13:25;23.60;99.90
63313;DHT22;49442;45.640;13.812;2022-08-19T01:15:55;23.60;99.90
63313;DHT22;49442;45.640;13.812;2022-08-19T01:18:21;23.50;99.90
63313;DHT22;49442;45.640;13.812;2022-08-19T01:20:49;23.40;99.90
63313;DHT22;49442;45.640;13.812;2022-08-19T01:23:16;22.80;99.90
63313;DHT22;49442;45.640;13.812;2022-08-19T01:25:48;22.60;99.90
63313;DHT22;49442;45.640;13.812;2022-08-19T01:28:26;22.50;99.90
63313;DHT22;49442;45.640;13.812;2022-08-19T01:30:54;22.50;99.90
63313;DHT22;49442;45.640;13.812;2022-08-19T01:33:20;22.60;99.90
63313;DHT22;49442;45.640;13.812;2022-08-19T01:35:47;22.60;99.90
63313;DHT22;49442;45.640;13.812;2022-08-19T01:38:26;22.40;99.90
63313;DHT22;49442;45.640;13.812;2022-08-19T01:40:57;22.20;99.90
63313;DHT22;49442;45.640;13.812;2022-08-19T01:43:23;22.00;99.90
63313;DHT22;49442;45.640;13.812;2022-08-19T01:45:49;21.90;99.90
63313;DHT22;49442;45.640;13.812;2022-08-19T01:48:16;21.80;99.90
63313;DHT22;49442;45.640;13.812;2022-08-19T01:50:42;21.60;99.90
63313;DHT22;49442;45.640;13.812;2022-08-19T01:53:10;21.50;99.90
63313;DHT22;49442;45.640;13.812;2022-08-19T01:55:39;21.40;99.90
63313;DHT22;49442;45.640;13.812;2022-08-19T01:58:05;21.40;99.90
63313;DHT22;49442;45.640;13.812;2022-08-19T02:00:32;21.30;99.90
63313;DHT22;49442;45.640;13.812;2022-08-19T02:02:58;21.30;99.90
63313;DHT22;49442;45.640;13.812;2022-08-19T02:05:26;21.20;99.90
63313;DHT22;49442;45.640;13.812;2022-08-19T02:07:55;21.10;99.90
63313;DHT22;49442;45.640;13.812;2022-08-19T02:10:22;21.00;99.90
63313;DHT22;49442;45.640;13.812;2022-08-19T02:12:48;20.80;99.90
63313;DHT22;49442;45.640;13.812;2022-08-19T02:15:15;20.60;99.90
63313;DHT22;49442;45.640;13.812;2022-08-19T02:17:42;20.50;99.90
63313;DHT22;49442;45.640;13.812;2022-08-19T02:20:08;20.50;99.90
63313;DHT22;49442;45.640;13.812;2022-08-19T02:22:35;20.50;99.90
63313;DHT22;49442;45.640;13.812;2022-08-19T02:25:01;20.60;99.90
63313;DHT22;49442;45.640;13.812;2022-08-19T02:27:27;20.60;99.90
63313;DHT22;49442;45.640;13.812;2022-08-19T02:29:53;20.40;99.90
63313;DHT22;49442;45.640;13.812;2022-08-19T02:32:19;20.30;99.90
63313;DHT22;49442;45.640;13.812;2022-08-19T02:34:46;20.20;99.90
63313;DHT22;49442;45.640;13.812;2022-08-19T02:37:12;20.10;99.90
63313;DHT22;49442;45.640;13.812;2022-08-19T02:39:57;20.00;99.90
63313;DHT22;49442;45.640;13.812;2022-08-19T02:42:23;19.90;99.90
63313;DHT22;49442;45.640;13.812;2022-08-19T02:44:49;19.80;99.90
63313;DHT22;49442;45.640;13.812;2022-08-19T02:47:14;19.70;99.90
63313;DHT22;49442;45.640;13.812;2022-08-19T02:49:41;19.70;99.90
63313;DHT22;49442;45.640;13.812;2022-08-19T02:52:08;19.70;99.90
63313;DHT22;49442;45.640;13.812;2022-08-19T02:54:34;19.70;99.90
63313;DHT22;49442;45.640;13.812;2022-08-19T02:56:59;19.60;99.90
63313;DHT22;49442;45.640;13.812;2022-08-19T02:59:25;19.50;99.90
63313;DHT22;49442;45.640;13.812;2022-08-19T03:01:52;19.50;99.90
63313;DHT22;49442;45.640;13.812;2022-08-19T03:04:18;19.50;99.90
63313;DHT22;49442;45.640;13.812;2022-08-19T03:06:46;19.50;99.90
63313;DHT22;49442;45.640;13.812;2022-08-19T03:09:12;19.50;99.90
63313;DHT22;49442;45.640;13.812;2022-08-19T03:11:38;19.50;99.90
63313;DHT22;49442;45.640;13.812;2022-08-19T03:14:06;19.60;99.90
63313;DHT22;49442;45.640;13.812;2022-08-19T03:16:34;19.50;99.90
63313;DHT22;49442;45.640;13.812;2022-08-19T03:19:02;19.50;99.90
63313;DHT22;49442;45.640;13.812;2022-08-19T03:21:31;19.50;99.90
63313;DHT22;49442;45.640;13.812;2022-08-19T03:23:59;19.50;99.90
63313;DHT22;49442;45.640;13.812;2022-08-19T03:26:25;19.50;99.90
63313;DHT22;49442;45.640;13.812;2022-08-19T03:28:51;19.50;99.90
63313;DHT22;49442;45.640;13.812;2022-08-19T03:31:22;19.40;99.90
63313;DHT22;49442;45.640;13.812;2022-08-19T03:33:51;19.50;99.90
63313;DHT22;49442;45.640;13.812;2022-08-19T03:36:20;19.50;99.90
63313;DHT22;49442;45.640;13.812;2022-08-19T03:38:52;19.50;99.90
63313;DHT22;49442;45.640;13.812;2022-08-19T03:41:26;19.50;99.90
63313;DHT22;49442;45.640;13.812;2022-08-19T03:43:53;19.50;99.90
63313;DHT22;49442;45.640;13.812;2022-08-19T03:46:24;19.50;99.90
63313;DHT22;49442;45.640;13.812;2022-08-19T03:48:53;19.50;99.90
63313;DHT22;49442;45.640;13.812;2022-08-19T03:51:27;19.50;99.90
63313;DHT22;49442;45.640;13.812;2022-08-19T03:53:54;19.50;99.90
63313;DHT22;49442;45.640;13.812;2022-08-19T03:56:21;19.60;99.90
63313;DHT22;49442;45.640;13.812;2022-08-19T03:58:47;19.60;99.90
63313;DHT22;49442;45.640;13.812;2022-08-19T04:01:17;19.60;99.90
63313;DHT22;49442;45.640;13.812;2022-08-19T04:03:44;19.60;99.90
63313;DHT22;49442;45.640;13.812;2022-08-19T04:06:16;19.60;99.90
63313;DHT22;49442;45.640;13.812;2022-08-19T04:08:43;19.60;99.90
63313;DHT22;49442;45.640;13.812;2022-08-19T04:11:11;19.60;99.90
63313;DHT22;49442;45.640;13.812;2022-08-19T04:13:38;19.60;99.90
63313;DHT22;49442;45.640;13.812;2022-08-19T04:16:05;19.60;99.90
63313;DHT22;49442;45.640;13.812;2022-08-19T04:18:32;19.50;99.90
63313;DHT22;49442;45.640;13.812;2022-08-19T04:20:59;19.40;99.90
63313;DHT22;49442;45.640;13.812;2022-08-19T04:23:25;19.20;99.90
63313;DHT22;49442;45.640;13.812;2022-08-19T04:25:54;19.20;99.90
63313;DHT22;49442;45.640;13.812;2022-08-19T04:28:20;19.20;99.90
63313;DHT22;49442;45.640;13.812;2022-08-19T04:30:49;19.30;99.90
63313;DHT22;49442;45.640;13.812;2022-08-19T04:33:17;19.20;99.90
63313;DHT22;49442;45.640;13.812;2022-08-19T04:35:45;19.20;99.90
63313;DHT22;49442;45.640;13.812;2022-08-19T04:38:13;19.20;99.90
63313;DHT22;49442;45.640;13.812;2022-08-19T04:40:45;19.10;99.90
63313;DHT22;49442;45.640;13.812;2022-08-19T04:43:30;19.10;99.90
63313;DHT22;49442;45.640;13.812;2022-08-19T04:45:56;19.00;99.90
63313;DHT22;49442;45.640;13.812;2022-08-19T04:48:22;18.90;99.90
63313;DHT22;49442;45.640;13.812;2022-08-19T04:50:56;18.70;99.90
63313;DHT22;49442;45.640;13.812;2022-08-19T04:53:29;18.70;99.90
63313;DHT22;49442;45.640;13.812;2022-08-19T04:55:56;18.60;99.90
63313;DHT22;49442;45.640;13.812;2022-08-19T04:58:26;18.60;99.90
63313;DHT22;49442;45.640;13.812;2022-08-19T05:00:53;18.60;99.90
63313;DHT22;49442;45.640;13.812;2022-08-19T05:03:20;18.50;99.90
63313;DHT22;49442;45.640;13.812;2022-08-19T05:05:47;18.50;99.90
63313;DHT22;49442;45.640;13.812;2022-08-19T05:08:19;18.50;99.90
63313;DHT22;49442;45.640;13.812;2022-08-19T05:10:47;18.50;99.90
63313;DHT22;49442;45.640;13.812;2022-08-19T05:13:14;18.50;99.90
63313;DHT22;49442;45.640;13.812;2022-08-19T05:15:40;18.40;99.90
63313;DHT22;49442;45.640;13.812;2022-08-19T05:18:06;18.40;99.90
63313;DHT22;49442;45.640;13.812;2022-08-19T05:20:50;18.40;99.90
63313;DHT22;49442;45.640;13.812;2022-08-19T05:23:34;18.40;99.90
63313;DHT22;49442;45.640;13.812;2022-08-19T05:26:00;18.40;99.90
63313;DHT22;49442;45.640;13.812;2022-08-19T05:28:26;18.40;99.90
63313;DHT22;49442;45.640;13.812;2022-08-19T05:30:53;18.40;99.90
63313;DHT22;49442;45.640;13.812;2022-08-19T05:33:21;18.40;99.90
63313;DHT22;49442;45.640;13.812;2022-08-19T05:35:48;18.40;99.90
63313;DHT22;49442;45.640;13.812;2022-08-19T05:38:15;18.40;99.90
63313;DHT22;49442;45.640;13.812;2022-08-19T05:40:41;18.40;99.90
63313;DHT22;49442;45.640;13.812;2022-08-19T05:43:08;18.50;99.90
63313;DHT22;49442;45.640;13.812;2022-08-19T05:45:39;18.40;99.90
63313;DHT22;49442;45.640;13.812;2022-08-19T05:48:05;18.50;99.90
63313;DHT22;49442;45.640;13.812;2022-08-19T05:50:30;18.50;99.90
63313;DHT22;49442;45.640;13.812;2022-08-19T05:52:56;18.50;99.90
63313;DHT22;49442;45.640;13.812;2022-08-19T05:55:22;18.60;99.90
63313;DHT22;49442;45.640;13.812;2022-08-19T05:57:49;18.70;99.90
63313;DHT22;49442;45.640;13.812;2022-08-19T06:00:15;18.80;99.90
63313;DHT22;49442;45.640;13.812;2022-08-19T06:02:41;18.80;99.90
63313;DHT22;49442;45.640;13.812;2022-08-19T06:05:07;18.90;99.90
63313;DHT22;49442;45.640;13.812;2022-08-19T06:07:39;19.00;99.90
63313;DHT22;49442;45.640;13.812;2022-08-19T06:10:07;18.90;99.90
63313;DHT22;49442;45.640;13.812;2022-08-19T06:12:34;18.90;99.90
63313;DHT22;49442;45.640;13.812;2022-08-19T06:15:04;19.00;99.90
63313;DHT22;49442;45.640;13.812;2022-08-19T06:17:31;19.00;99.90
63313;DHT22;49442;45.640;13.812;2022-08-19T06:19:57;19.00;99.90
63313;DHT22;49442;45.640;13.812;2022-08-19T06:22:23;19.10;99.90
63313;DHT22;49442;45.640;13.812;2022-08-19T06:24:49;19.20;99.90
63313;DHT22;49442;45.640;13.812;2022-08-19T06:27:18;19.30;99.90
63313;DHT22;49442;45.640;13.812;2022-08-19T06:29:44;19.30;99.90
63313;DHT22;49442;45.640;13.812;2022-08-19T06:32:15;19.30;99.90
63313;DHT22;49442;45.640;13.812;2022-08-19T06:34:42;19.40;99.90
63313;DHT22;49442;45.640;13.812;2022-08-19T06:37:08;19.50;99.90
63313;DHT22;49442;45.640;13.812;2022-08-19T06:39:40;19.50;99.90
63313;DHT22;49442;45.640;13.812;2022-08-19T06:42:07;19.60;99.90
63313;DHT22;49442;45.640;13.812;2022-08-19T06:44:37;19.60;99.90
63313;DHT22;49442;45.640;13.812;2022-08-19T06:47:06;19.70;99.90
63313;DHT22;49442;45.640;13.812;2022-08-19T06:49:32;19.80;99.90
63313;DHT22;49442;45.640;13.812;2022-08-19T06:51:59;19.90;99.90
63313;DHT22;49442;45.640;13.812;2022-08-19T06:54:25;20.00;99.90
63313;DHT22;49442;45.640;13.812;2022-08-19T06:56:51;20.10;99.90
63313;DHT22;49442;45.640;13.812;2022-08-19T06:59:21;20.20;99.90
63313;DHT22;49442;45.640;13.812;2022-08-19T07:01:52;20.30;99.90
63313;DHT22;49442;45.640;13.812;2022-08-19T07:04:24;20.40;99.90
63313;DHT22;49442;45.640;13.812;2022-08-19T07:06:55;20.50;99.90
63313;DHT22;49442;45.640;13.812;2022-08-19T07:09:21;20.60;99.90
63313;DHT22;49442;45.640;13.812;2022-08-19T07:11:49;20.60;99.90
63313;DHT22;49442;45.640;13.812;2022-08-19T07:14:18;20.70;99.90
63313;DHT22;49442;45.640;13.812;2022-08-19T07:16:44;20.80;99.90
63313;DHT22;49442;45.640;13.812;2022-08-19T07:19:12;20.80;99.90
63313;DHT22;49442;45.640;13.812;2022-08-19T07:21:38;20.90;99.90
63313;DHT22;49442;45.640;13.812;2022-08-19T07:24:04;20.90;99.90
63313;DHT22;49442;45.640;13.812;2022-08-19T07:26:33;20.90;99.90
63313;DHT22;49442;45.640;13.812;2022-08-19T07:28:59;21.00;99.90
63313;DHT22;49442;45.640;13.812;2022-08-19T07:31:27;21.00;99.90
63313;DHT22;49442;45.640;13.812;2022-08-19T07:33:54;21.00;99.90
63313;DHT22;49442;45.640;13.812;2022-08-19T07:36:27;21.10;99.90
63313;DHT22;49442;45.640;13.812;2022-08-19T07:38:59;21.20;99.90
63313;DHT22;49442;45.640;13.812;2022-08-19T07:41:28;21.20;99.90
63313;DHT22;49442;45.640;13.812;2022-08-19T07:43:58;21.30;99.90
63313;DHT22;49442;45.640;13.812;2022-08-19T07:46:24;21.40;99.90
63313;DHT22;49442;45.640;13.812;2022-08-19T07:48:51;21.50;99.90
63313;DHT22;49442;45.640;13.812;2022-08-19T07:51:19;21.60;99.90
63313;DHT22;49442;45.640;13.812;2022-08-19T07:53:45;21.70;99.90
63313;DHT22;49442;45.640;13.812;2022-08-19T07:56:15;21.80;99.90
63313;DHT22;49442;45.640;13.812;2022-08-19T07:58:44;21.90;99.90
63313;DHT22;49442;45.640;13.812;2022-08-19T08:01:17;22.00;99.90
63313;DHT22;49442;45.640;13.812;2022-08-19T08:03:43;22.00;99.90
63313;DHT22;49442;45.640;13.812;2022-08-19T08:06:28;22.10;99.90
63313;DHT22;49442;45.640;13.812;2022-08-19T08:09:14;22.10;99.90
63313;DHT22;49442;45.640;13.812;2022-08-19T08:11:57;22.30;99.90
63313;DHT22;49442;45.640;13.812;2022-08-19T08:14:29;22.60;99.90
63313;DHT22;49442;45.640;13.812;2022-08-19T08:16:56;22.60;99.90
63313;DHT22;49442;45.640;13.812;2022-08-19T08:19:24;22.70;99.90
63313;DHT22;49442;45.640;13.812;2022-08-19T08:21:52;22.80;99.90
63313;DHT22;49442;45.640;13.812;2022-08-19T08:24:18;22.80;99.90
63313;DHT22;49442;45.640;13.812;2022-08-19T08:26:45;22.80;99.90
63313;DHT22;49442;45.640;13.812;2022-08-19T08:29:12;23.00;99.90
63313;DHT22;49442;45.640;13.812;2022-08-19T08:31:40;23.00;99.90
63313;DHT22;49442;45.640;13.812;2022-08-19T08:34:06;23.10;99.90
63313;DHT22;49442;45.640;13.812;2022-08-19T08:36:32;23.30;99.90
63313;DHT22;49442;45.640;13.812;2022-08-19T08:39:00;23.60;99.90
63313;DHT22;49442;45.640;13.812;2022-08-19T08:44:17;24.20;99.90
63313;DHT22;49442;45.640;13.812;2022-08-19T08:46:57;24.30;99.90
63313;DHT22;49442;45.640;13.812;2022-08-19T08:49:49;24.30;99.90
63313;DHT22;49442;45.640;13.812;2022-08-19T08:52:31;24.40;99.90
63313;DHT22;49442;45.640;13.812;2022-08-19T08:55:05;24.40;99.90
63313;DHT22;49442;45.640;13.812;2022-08-19T09:00:14;24.40;99.90
63313;DHT22;49442;45.640;13.812;2022-08-19T09:02:42;24.40;99.90
63313;DHT22;49442;45.640;13.812;2022-08-19T09:05:09;24.40;99.90
63313;DHT22;49442;45.640;13.812;2022-08-19T09:07:48;24.40;99.90
63313;DHT22;49442;45.640;13.812;2022-08-19T09:10:38;24.40;99.90
63313;DHT22;49442;45.640;13.812;2022-08-19T09:16:21;24.60;99.90
63313;DHT22;49442;45.640;13.812;2022-08-19T09:19:05;24.80;99.90
63313;DHT22;49442;45.640;13.812;2022-08-19T09:21:31;24.70;99.90
63313;DHT22;49442;45.640;13.812;2022-08-19T09:23:57;24.60;99.90
63313;DHT22;49442;45.640;13.812;2022-08-19T09:26:24;24.60;99.90
63313;DHT22;49442;45.640;13.812;2022-08-19T09:28:52;24.60;99.90
63313;DHT22;49442;45.640;13.812;2022-08-19T09:31:24;24.60;99.90
63313;DHT22;49442;45.640;13.812;2022-08-19T09:33:51;24.60;99.90
63313;DHT22;49442;45.640;13.812;2022-08-19T09:36:20;24.80;99.90
63313;DHT22;49442;45.640;13.812;2022-08-19T09:38:48;24.90;99.90
63313;DHT22;49442;45.640;13.812;2022-08-19T09:41:19;24.90;99.90
63313;DHT22;49442;45.640;13.812;2022-08-19T09:43:47;25.20;99.90
63313;DHT22;49442;45.640;13.812;2022-08-19T09:46:13;25.30;99.90
63313;DHT22;49442;45.640;13.812;2022-08-19T09:48:40;25.30;99.90
63313;DHT22;49442;45.640;13.812;2022-08-19T09:51:09;25.40;99.90
63313;DHT22;49442;45.640;13.812;2022-08-19T09:53:37;25.40;99.90
63313;DHT22;49442;45.640;13.812;2022-08-19T09:56:04;25.50;99.90
63313;DHT22;49442;45.640;13.812;2022-08-19T09:58:31;25.80;99.90
63313;DHT22;49442;45.640;13.812;2022-08-19T10:00:58;25.80;99.90
63313;DHT22;49442;45.640;13.812;2022-08-19T10:03:25;25.90;99.90
63313;DHT22;49442;45.640;13.812;2022-08-19T10:05:52;26.00;99.90
63313;DHT22;49442;45.640;13.812;2022-08-19T10:08:31;26.00;99.90
63313;DHT22;49442;45.640;13.812;2022-08-19T10:10:58;26.10;99.90
63313;DHT22;49442;45.640;13.812;2022-08-19T10:13:27;26.20;99.90
63313;DHT22;49442;45.640;13.812;2022-08-19T10:15:55;26.20;99.90
63313;DHT22;49442;45.640;13.812;2022-08-19T10:18:23;26.10;99.90
63313;DHT22;49442;45.640;13.812;2022-08-19T10:20:50;26.10;99.90
63313;DHT22;49442;45.640;13.812;2022-08-19T10:23:17;26.00;99.90
63313;DHT22;49442;45.640;13.812;2022-08-19T10:25:43;25.90;99.90
63313;DHT22;49442;45.640;13.812;2022-08-19T10:28:09;25.90;99.90
63313;DHT22;49442;45.640;13.812;2022-08-19T10:30:38;25.90;99.90
63313;DHT22;49442;45.640;13.812;2022-08-19T10:33:05;25.90;99.90
63313;DHT22;49442;45.640;13.812;2022-08-19T10:35:31;25.90;99.90
63313;DHT22;49442;45.640;13.812;2022-08-19T10:37:57;25.80;99.90
63313;DHT22;49442;45.640;13.812;2022-08-19T10:40:26;25.70;99.90
63313;DHT22;49442;45.640;13.812;2022-08-19T10:42:53;25.50;99.90
63313;DHT22;49442;45.640;13.812;2022-08-19T10:45:19;25.30;99.90
63313;DHT22;49442;45.640;13.812;2022-08-19T10:47:47;25.10;99.90
63313;DHT22;49442;45.640;13.812;2022-08-19T10:50:13;24.60;99.90
63313;DHT22;49442;45.640;13.812;2022-08-19T10:52:57;24.10;99.90
63313;DHT22;49442;45.640;13.812;2022-08-19T10:55:24;23.80;99.90
63313;DHT22;49442;45.640;13.812;2022-08-19T10:58:13;23.30;99.90
63313;DHT22;49442;45.640;13.812;2022-08-19T11:00:40;22.90;99.90
63313;DHT22;49442;45.640;13.812;2022-08-19T11:03:06;22.70;99.90
63313;DHT22;49442;45.640;13.812;2022-08-19T11:05:31;22.50;99.90
63313;DHT22;49442;45.640;13.812;2022-08-19T11:07:57;22.50;99.90
63313;DHT22;49442;45.640;13.812;2022-08-19T11:10:23;22.50;99.90
63313;DHT22;49442;45.640;13.812;2022-08-19T11:12:49;22.50;99.90
63313;DHT22;49442;45.640;13.812;2022-08-19T11:15:18;22.50;99.90
63313;DHT22;49442;45.640;13.812;2022-08-19T11:17:44;22.60;99.90
63313;DHT22;49442;45.640;13.812;2022-08-19T11:20:14;22.70;99.90
63313;DHT22;49442;45.640;13.812;2022-08-19T11:22:40;22.70;99.90
63313;DHT22;49442;45.640;13.812;2022-08-19T11:25:08;22.80;99.90
63313;DHT22;49442;45.640;13.812;2022-08-19T11:27:38;22.80;99.90
63313;DHT22;49442;45.640;13.812;2022-08-19T11:30:05;22.90;99.90
63313;DHT22;49442;45.640;13.812;2022-08-19T11:32:32;23.00;99.90
63313;DHT22;49442;45.640;13.812;2022-08-19T11:34:59;23.10;99.90
63313;DHT22;49442;45.640;13.812;2022-08-19T11:37:24;23.20;99.90
63313;DHT22;49442;45.640;13.812;2022-08-19T11:39:50;23.30;99.90
63313;DHT22;49442;45.640;13.812;2022-08-19T11:42:17;23.30;99.90
63313;DHT22;49442;45.640;13.812;2022-08-19T11:45:02;23.50;99.90
63313;DHT22;49442;45.640;13.812;2022-08-19T11:47:29;23.60;99.90
63313;DHT22;49442;45.640;13.812;2022-08-19T11:49:56;23.70;99.90
63313;DHT22;49442;45.640;13.812;2022-08-19T11:52:21;23.70;99.90
63313;DHT22;49442;45.640;13.812;2022-08-19T11:54:47;23.70;99.90
63313;DHT22;49442;45.640;13.812;2022-08-19T11:57:13;23.80;99.90
63313;DHT22;49442;45.640;13.812;2022-08-19T11:59:42;23.80;99.90
63313;DHT22;49442;45.640;13.812;2022-08-19T12:02:12;23.90;99.90
63313;DHT22;49442;45.640;13.812;2022-08-19T12:04:39;23.90;99.90
63313;DHT22;49442;45.640;13.812;2022-08-19T12:07:04;24.00;99.90
63313;DHT22;49442;45.640;13.812;2022-08-19T12:09:30;24.00;99.90
63313;DHT22;49442;45.640;13.812;2022-08-19T12:11:57;24.10;99.90
63313;DHT22;49442;45.640;13.812;2022-08-19T12:14:22;24.10;99.90
63313;DHT22;49442;45.640;13.812;2022-08-19T12:16:48;24.10;99.90
63313;DHT22;49442;45.640;13.812;2022-08-19T12:19:15;24.30;99.90
63313;DHT22;49442;45.640;13.812;2022-08-19T12:21:41;24.30;99.90
63313;DHT22;49442;45.640;13.812;2022-08-19T12:24:06;24.40;99.90
63313;DHT22;49442;45.640;13.812;2022-08-19T12:26:33;24.40;99.90
63313;DHT22;49442;45.640;13.812;2022-08-19T12:28:59;24.50;99.90
63313;DHT22;49442;45.640;13.812;2022-08-19T12:31:27;24.60;99.90
63313;DHT22;49442;45.640;13.812;2022-08-19T12:33:53;24.70;99.90
63313;DHT22;49442;45.640;13.812;2022-08-19T12:36:19;24.60;99.90
63313;DHT22;49442;45.640;13.812;2022-08-19T12:38:47;24.80;99.90
63313;DHT22;49442;45.640;13.812;2022-08-19T12:41:14;24.80;99.90
63313;DHT22;49442;45.640;13.812;2022-08-19T12:43:42;24.90;99.90
63313;DHT22;49442;45.640;13.812;2022-08-19T12:46:09;25.00;99.90
63313;DHT22;49442;45.640;13.812;2022-08-19T12:48:35;25.10;99.90
63313;DHT22;49442;45.640;13.812;2022-08-19T12:51:09;25.20;99.90
63313;DHT22;49442;45.640;13.812;2022-08-19T12:53:35;25.30;99.90
63313;DHT22;49442;45.640;13.812;2022-08-19T12:56:01;25.30;99.90
63313;DHT22;49442;45.640;13.812;2022-08-19T12:58:28;25.30;99.90
63313;DHT22;49442;45.640;13.812;2022-08-19T13:00:54;25.40;99.90
63313;DHT22;49442;45.640;13.812;2022-08-19T13:03:20;25.40;99.90
63313;DHT22;49442;45.640;13.812;2022-08-19T13:05:52;25.40;99.90
63313;DHT22;49442;45.640;13.812;2022-08-19T13:08:18;25.40;99.90
63313;DHT22;49442;45.640;13.812;2022-08-19T13:10:44;25.40;99.90
63313;DHT22;49442;45.640;13.812;2022-08-19T13:13:10;25.50;99.90
63313;DHT22;49442;45.640;13.812;2022-08-19T13:15:39;25.50;99.90
63313;DHT22;49442;45.640;13.812;2022-08-19T13:18:07;25.60;99.90
63313;DHT22;49442;45.640;13.812;2022-08-19T13:20:34;25.60;99.90
63313;DHT22;49442;45.640;13.812;2022-08-19T13:23:00;25.80;99.90
63313;DHT22;49442;45.640;13.812;2022-08-19T13:25:26;25.80;99.90
63313;DHT22;49442;45.640;13.812;2022-08-19T13:27:52;25.70;99.90
63313;DHT22;49442;45.640;13.812;2022-08-19T13:30:19;25.70;99.90
63313;DHT22;49442;45.640;13.812;2022-08-19T13:33:04;25.70;99.90
63313;DHT22;49442;45.640;13.812;2022-08-19T13:35:37;25.80;99.90
63313;DHT22;49442;45.640;13.812;2022-08-19T13:38:03;25.90;99.90
63313;DHT22;49442;45.640;13.812;2022-08-19T13:40:30;26.00;99.90
63313;DHT22;49442;45.640;13.812;2022-08-19T13:42:59;26.00;99.90
63313;DHT22;49442;45.640;13.812;2022-08-19T13:45:28;25.90;99.90
63313;DHT22;49442;45.640;13.812;2022-08-19T13:47:55;25.80;99.90
63313;DHT22;49442;45.640;13.812;2022-08-19T13:50:24;25.90;99.90
63313;DHT22;49442;45.640;13.812;2022-08-19T13:52:51;26.00;99.90
63313;DHT22;49442;45.640;13.812;2022-08-19T13:55:18;26.00;99.90
63313;DHT22;49442;45.640;13.812;2022-08-19T13:57:44;25.90;99.90
63313;DHT22;49442;45.640;13.812;2022-08-19T14:00:13;26.00;99.90
63313;DHT22;49442;45.640;13.812;2022-08-19T14:02:40;26.10;99.90
63313;DHT22;49442;45.640;13.812;2022-08-19T14:05:08;26.10;99.90
63313;DHT22;49442;45.640;13.812;2022-08-19T14:07:34;26.10;99.90
63313;DHT22;49442;45.640;13.812;2022-08-19T14:10:00;26.00;99.90
63313;DHT22;49442;45.640;13.812;2022-08-19T14:12:25;26.10;99.90
63313;DHT22;49442;45.640;13.812;2022-08-19T14:14:51;26.30;99.90
63313;DHT22;49442;45.640;13.812;2022-08-19T14:17:17;26.30;99.90
63313;DHT22;49442;45.640;13.812;2022-08-19T14:19:43;26.40;99.90
63313;DHT22;49442;45.640;13.812;2022-08-19T14:22:09;26.40;99.90
63313;DHT22;49442;45.640;13.812;2022-08-19T14:24:37;26.50;99.90
63313;DHT22;49442;45.640;13.812;2022-08-19T14:27:05;26.40;99.90
63313;DHT22;49442;45.640;13.812;2022-08-19T14:29:32;26.50;99.90
63313;DHT22;49442;45.640;13.812;2022-08-19T14:31:58;26.40;99.90
63313;DHT22;49442;45.640;13.812;2022-08-19T14:34:25;26.50;99.90
63313;DHT22;49442;45.640;13.812;2022-08-19T14:36:52;26.40;99.90
63313;DHT22;49442;45.640;13.812;2022-08-19T14:39:17;26.40;99.90
63313;DHT22;49442;45.640;13.812;2022-08-19T14:41:43;26.40;99.90
63313;DHT22;49442;45.640;13.812;2022-08-19T14:44:10;26.30;99.90
63313;DHT22;49442;45.640;13.812;2022-08-19T14:46:38;26.30;99.90
63313;DHT22;49442;45.640;13.812;2022-08-19T14:49:04;26.10;99.90
63313;DHT22;49442;45.640;13.812;2022-08-19T14:51:31;26.10;99.90
63313;DHT22;49442;45.640;13.812;2022-08-19T14:53:56;26.10;99.90
63313;DHT22;49442;45.640;13.812;2022-08-19T14:56:25;26.10;99.90
63313;DHT22;49442;45.640;13.812;2022-08-19T14:58:51;26.10;99.90
63313;DHT22;49442;45.640;13.812;2022-08-19T15:01:18;26.10;99.90
63313;DHT22;49442;45.640;13.812;2022-08-19T15:03:46;26.00;99.90
63313;DHT22;49442;45.640;13.812;2022-08-19T15:06:13;26.00;99.90
63313;DHT22;49442;45.640;13.812;2022-08-19T15:08:40;25.90;99.90
63313;DHT22;49442;45.640;13.812;2022-08-19T15:11:15;25.80;99.90
63313;DHT22;49442;45.640;13.812;2022-08-19T15:13:43;25.70;99.90
63313;DHT22;49442;45.640;13.812;2022-08-19T15:16:09;25.70;99.90
63313;DHT22;49442;45.640;13.812;2022-08-19T15:18:35;25.80;99.90
63313;DHT22;49442;45.640;13.812;2022-08-19T15:21:03;25.80;99.90
63313;DHT22;49442;45.640;13.812;2022-08-19T15:23:29;25.80;99.90
63313;DHT22;49442;45.640;13.812;2022-08-19T15:25:55;25.70;99.90
63313;DHT22;49442;45.640;13.812;2022-08-19T15:28:22;25.60;99.90
63313;DHT22;49442;45.640;13.812;2022-08-19T15:30:48;25.60;99.90